Henderson, North Carolina
Current Conditions -  °F | °C
As of 5:15 AM on Saturday 25 Oct 2014 (Local Time) from KHNZ Reporting Station
Clear Clear  
Wind Chill: 50°   Ceiling: Unl
Heat Index: 50°   Visibility: 10mi
Dew Point: 38°   Wind: 6mph
Humidity: 63%   Direction: 320°NW
Pressure: 29.98"   Gusts: NA
Location:  36.33°N, 78.4°W
Report Text: KHNZ 250915Z AUTO 32005KT 10SM CLR 10/03 A2998 RMK AO2 T01000033
Loading
Personal Weather Stations






























Interactive Weather Map
Tropical Storm Tracking
New forecast layout! Learn more

10-Day Weather Forecast

Advertisements
Track Severe Weather on mobile